Time,TemperatureF,DewpointF,PressureIn,WindDirection,WindDirectionDegrees,WindSpeedMPH,WindSpeedGustMPH,Humidity,HourlyPrecipIn,Conditions,Clouds,dailyrainin,SoftwareType,DateUTC
2013-02-09 00:06:00,21.9,16.0,29.82,SE,141,0.0,0.0,77,0.00,,,0.00,weatherlink.com 1.10,2013-02-09 07:06:00,
2013-02-09 00:22:00,21.8,16.0,29.81,SE,141,0.0,0.0,77,0.00,,,0.00,weatherlink.com 1.10,2013-02-09 07:22:00,
2013-02-09 00:37:00,21.4,17.0,29.81,SE,141,0.0,0.0,83,0.00,,,0.00,weatherlink.com 1.10,2013-02-09 07:37:00,
2013-02-09 00:52:00,21.1,16.0,29.81,WNW,285,0.0,3.0,82,0.00,,,0.00,weatherlink.com 1.10,2013-02-09 07:52:00,
2013-02-09 01:07:00,21.2,17.0,29.82,WNW,285,0.0,0.0,84,0.00,,,0.00,weatherlink.com 1.10,2013-02-09 08:07:00,
2013-02-09 01:22:00,23.0,20.0,29.80,SW,236,0.0,2.0,88,0.00,,,0.00,weatherlink.com 1.10,2013-02-09 08:22:00,
2013-02-09 01:37:00,23.9,21.0,29.79,ENE,76,0.0,0.0,87,0.00,,,0.00,weatherlink.com 1.10,2013-02-09 08:37:00,
2013-02-09 01:52:00,25.0,21.0,29.79,East,79,0.0,1.0,86,0.00,,,0.00,weatherlink.com 1.10,2013-02-09 08:52:00,
2013-02-09 02:07:00,25.5,21.0,29.78,East,82,0.0,1.0,84,0.00,,,0.00,weatherlink.com 1.10,2013-02-09 09:07:00,
2013-02-09 02:22:00,25.1,21.0,29.78,NE,37,0.0,1.0,83,0.00,,,0.00,weatherlink.com 1.10,2013-02-09 09:22:00,
2013-02-09 02:37:00,24.8,20.0,29.77,West,277,0.0,3.0,82,0.00,,,0.00,weatherlink.com 1.10,2013-02-09 09:37:00,
2013-02-09 02:52:00,23.9,19.0,29.77,West,275,0.0,1.0,82,0.00,,,0.00,weatherlink.com 1.10,2013-02-09 09:52:00,
2013-02-09 03:07:00,22.9,19.0,29.76,West,275,0.0,0.0,83,0.00,,,0.00,weatherlink.com 1.10,2013-02-09 10:07:00,
2013-02-09 03:22:00,22.2,18.0,29.75,West,276,0.0,0.0,84,0.00,,,0.00,weatherlink.com 1.10,2013-02-09 10:22:00,
2013-02-09 03:37:00,21.7,17.0,29.75,NW,311,0.0,0.0,83,0.00,,,0.00,weatherlink.com 1.10,2013-02-09 10:37:00,
2013-02-09 03:52:00,21.0,17.0,29.74,WNW,284,0.0,1.0,83,0.00,,,0.00,weatherlink.com 1.10,2013-02-09 10:52:00,
2013-02-09 04:07:00,20.1,16.0,29.74,WNW,288,0.0,1.0,84,0.00,,,0.00,weatherlink.com 1.10,2013-02-09 11:07:00,
2013-02-09 04:22:00,18.8,15.0,29.73,West,281,0.0,0.0,85,0.00,,,0.00,weatherlink.com 1.10,2013-02-09 11:22:00,
2013-02-09 04:37:00,18.3,15.0,29.73,WNW,291,0.0,1.0,86,0.00,,,0.00,weatherlink.com 1.10,2013-02-09 11:37:00,
2013-02-09 04:52:00,18.3,14.0,29.72,WNW,297,0.0,1.0,84,0.00,,,0.00,weatherlink.com 1.10,2013-02-09 11:52:00,
2013-02-09 05:07:00,17.8,14.0,29.72,WNW,298,0.0,1.0,84,0.00,,,0.00,weatherlink.com 1.10,2013-02-09 12:07:00,
2013-02-09 05:22:00,17.6,14.0,29.72,WNW,297,0.0,0.0,84,0.00,,,0.00,weatherlink.com 1.10,2013-02-09 12:22:00,
2013-02-09 05:37:00,17.1,13.0,29.72,WNW,297,0.0,0.0,84,0.00,,,0.00,weatherlink.com 1.10,2013-02-09 12:37:00,
2013-02-09 05:52:00,17.3,13.0,29.72,SE,132,0.0,1.0,84,0.00,,,0.00,weatherlink.com 1.10,2013-02-09 12:52:00,
2013-02-09 06:07:00,18.0,14.0,29.70,West,274,0.0,2.0,84,0.00,,,0.00,weatherlink.com 1.10,2013-02-09 13:07:00,
2013-02-09 06:22:00,18.6,14.0,29.70,ENE,70,4.0,9.0,83,0.00,,,0.00,weatherlink.com 1.10,2013-02-09 13:22:00,
2013-02-09 06:37:00,18.2,14.0,29.70,ESE,110,0.0,1.0,82,0.00,,,0.00,weatherlink.com 1.10,2013-02-09 13:37:00,
2013-02-09 06:52:00,16.8,13.0,29.70,ESE,110,0.0,0.0,83,0.00,,,0.00,weatherlink.com 1.10,2013-02-09 13:52:00,
2013-02-09 07:07:00,15.6,12.0,29.71,ESE,110,0.0,0.0,85,0.00,,,0.00,weatherlink.com 1.10,2013-02-09 14:07:00,
2013-02-09 07:23:00,15.1,12.0,29.70,ESE,110,0.0,0.0,86,0.00,,,0.00,weatherlink.com 1.10,2013-02-09 14:23:00,
2013-02-09 07:38:00,14.6,11.0,29.70,ESE,110,0.0,0.0,87,0.00,,,0.00,weatherlink.com 1.10,2013-02-09 14:38:00,
2013-02-09 07:53:00,14.7,12.0,29.70,ESE,110,0.0,0.0,87,0.00,,,0.00,weatherlink.com 1.10,2013-02-09 14:53:00,
2013-02-09 08:08:00,15.4,13.0,29.69,ESE,110,0.0,0.0,88,0.00,,,0.00,weatherlink.com 1.10,2013-02-09 15:08:00,
2013-02-09 08:23:00,19.1,15.0,29.68,ESE,110,0.0,0.0,85,0.00,,,0.00,weatherlink.com 1.10,2013-02-09 15:23:00,
2013-02-09 08:38:00,23.9,16.0,29.68,ESE,110,0.0,0.0,73,0.00,,,0.00,weatherlink.com 1.10,2013-02-09 15:38:00,
2013-02-09 08:53:00,23.3,15.0,29.67,ENE,57,0.0,2.0,71,0.00,,,0.00,weatherlink.com 1.10,2013-02-09 15:53:00,
2013-02-09 09:08:00,23.9,15.0,29.66,East,91,0.0,2.0,70,0.00,,,0.00,weatherlink.com 1.10,2013-02-09 16:08:00,
2013-02-09 09:23:00,24.4,15.0,29.65,SW,232,0.0,3.0,68,0.00,,,0.00,weatherlink.com 1.10,2013-02-09 16:23:00,
2013-02-09 09:38:00,25.5,15.0,29.64,ENE,73,0.0,5.0,65,0.00,,,0.00,weatherlink.com 1.10,2013-02-09 16:38:00,
2013-02-09 09:53:00,25.0,16.0,29.63,NE,49,0.0,7.0,68,0.00,,,0.00,weatherlink.com 1.10,2013-02-09 16:53:00,
2013-02-09 10:08:00,25.6,15.0,29.62,ENE,78,3.0,6.0,65,0.00,,,0.00,weatherlink.com 1.10,2013-02-09 17:08:00,
2013-02-09 10:23:00,25.7,16.0,29.61,East,87,2.0,7.0,66,0.00,,,0.00,weatherlink.com 1.10,2013-02-09 17:23:00,
2013-02-09 10:38:00,25.7,15.0,29.61,SE,127,3.0,8.0,65,0.00,,,0.00,weatherlink.com 1.10,2013-02-09 17:38:00,
2013-02-09 10:53:00,25.5,16.0,29.60,NE,55,6.0,9.0,66,0.00,,,0.00,weatherlink.com 1.10,2013-02-09 17:53:00,
2013-02-09 11:08:00,25.8,15.0,29.60,ENE,77,2.0,7.0,65,0.00,,,0.00,weatherlink.com 1.10,2013-02-09 18:08:00,
2013-02-09 11:23:00,25.5,16.0,29.59,ENE,65,3.0,7.0,66,0.00,,,0.00,weatherlink.com 1.10,2013-02-09 18:23:00,
2013-02-09 11:38:00,25.5,15.0,29.59,ESE,115,1.0,5.0,65,0.00,,,0.00,weatherlink.com 1.10,2013-02-09 18:38:00,
2013-02-09 11:53:00,25.1,17.0,29.59,South,190,0.0,2.0,71,0.00,,,0.00,weatherlink.com 1.10,2013-02-09 18:53:00,
2013-02-09 12:08:00,24.5,17.0,29.58,SSW,205,0.0,5.0,74,0.00,,,0.00,weatherlink.com 1.10,2013-02-09 19:08:00,
2013-02-09 12:23:00,23.9,17.0,29.57,South,191,0.0,10.0,74,0.00,,,0.00,weatherlink.com 1.10,2013-02-09 19:23:00,
2013-02-09 12:38:00,23.6,19.0,29.56,East,79,5.0,6.0,83,0.00,,,0.00,weatherlink.com 1.10,2013-02-09 19:38:00,
2013-02-09 12:53:00,24.2,18.0,29.56,WNW,288,3.0,4.0,76,0.00,,,0.00,weatherlink.com 1.10,2013-02-09 19:53:00,
2013-02-09 13:10:00,24.7,15.0,29.55,WNW,287,2.0,12.0,67,0.00,,,0.00,weatherlink.com 1.10,2013-02-09 20:10:00,
2013-02-09 13:24:00,23.7,15.0,29.55,WSW,242,2.0,11.0,70,0.00,,,0.00,weatherlink.com 1.10,2013-02-09 20:24:00,
2013-02-09 13:39:00,23.7,14.0,29.55,West,281,5.0,7.0,66,0.00,,,0.00,weatherlink.com 1.10,2013-02-09 20:39:00,
2013-02-09 13:54:00,24.2,12.0,29.54,WSW,246,0.0,8.0,59,0.00,,,0.00,weatherlink.com 1.10,2013-02-09 20:54:00,
2013-02-09 14:09:00,24.8,11.0,29.55,WNW,288,0.0,11.0,55,0.00,,,0.00,weatherlink.com 1.10,2013-02-09 21:09:00,
2013-02-09 14:24:00,25.1,11.0,29.55,WNW,297,4.0,8.0,56,0.00,,,0.00,weatherlink.com 1.10,2013-02-09 21:24:00,
2013-02-09 14:39:00,25.5,12.0,29.56,West,280,0.0,11.0,57,0.00,,,0.00,weatherlink.com 1.10,2013-02-09 21:39:00,
2013-02-09 14:54:00,25.9,11.0,29.56,NNE,22,1.0,5.0,54,0.00,,,0.00,weatherlink.com 1.10,2013-02-09 21:54:00,
2013-02-09 15:09:00,24.7,17.0,29.55,ENE,61,3.0,6.0,73,0.00,,,0.00,weatherlink.com 1.10,2013-02-09 22:09:00,
2013-02-09 15:24:00,24.7,18.0,29.55,ENE,61,1.0,5.0,77,0.00,,,0.00,weatherlink.com 1.10,2013-02-09 22:24:00,
2013-02-09 15:39:00,23.8,19.0,29.54,East,88,4.0,7.0,80,0.00,,,0.00,weatherlink.com 1.10,2013-02-09 22:39:00,
2013-02-09 15:54:00,23.4,18.0,29.55,NE,53,0.0,6.0,80,0.00,,,0.00,weatherlink.com 1.10,2013-02-09 22:54:00,
2013-02-09 16:09:00,23.1,18.0,29.55,NE,38,1.0,5.0,80,0.00,,,0.00,weatherlink.com 1.10,2013-02-09 23:09:00,
2013-02-09 16:24:00,21.9,18.0,29.56,NE,56,1.0,7.0,83,0.00,,,0.00,weatherlink.com 1.10,2013-02-09 23:24:00,
2013-02-09 16:39:00,21.6,18.0,29.57,East,98,1.0,3.0,85,0.00,,,0.00,weatherlink.com 1.10,2013-02-09 23:39:00,
2013-02-09 16:54:00,21.0,18.0,29.57,SE,124,1.0,3.0,88,0.00,,,0.00,weatherlink.com 1.10,2013-02-09 23:54:00,
2013-02-09 17:09:00,20.9,18.0,29.57,ENE,68,1.0,2.0,89,0.00,,,0.00,weatherlink.com 1.10,2013-02-10 00:09:00,
2013-02-09 17:24:00,20.8,18.0,29.57,East,80,0.0,1.0,89,0.00,,,0.00,weatherlink.com 1.10,2013-02-10 00:24:00,
2013-02-09 17:39:00,20.7,18.0,29.57,East,79,0.0,0.0,89,0.00,,,0.00,weatherlink.com 1.10,2013-02-10 00:39:00,
2013-02-09 17:54:00,20.7,18.0,29.57,East,101,0.0,1.0,89,0.00,,,0.00,weatherlink.com 1.10,2013-02-10 00:54:00,
2013-02-09 18:09:00,20.8,18.0,29.58,East,94,0.0,3.0,88,0.00,,,0.00,weatherlink.com 1.10,2013-02-10 01:09:00,
2013-02-09 18:24:00,20.8,18.0,29.59,ENE,72,0.0,2.0,89,0.00,,,0.00,weatherlink.com 1.10,2013-02-10 01:24:00,
2013-02-09 18:39:00,21.0,19.0,29.59,ENE,65,0.0,1.0,90,0.00,,,0.00,weatherlink.com 1.10,2013-02-10 01:39:00,
2013-02-09 18:54:00,20.9,19.0,29.59,NE,56,0.0,2.0,91,0.00,,,0.00,weatherlink.com 1.10,2013-02-10 01:54:00,
2013-02-09 19:09:00,20.8,18.0,29.59,NNE,19,1.0,3.0,89,0.00,,,0.00,weatherlink.com 1.10,2013-02-10 02:09:00,
2013-02-09 19:24:00,20.6,17.0,29.58,East,88,0.0,0.0,86,0.00,,,0.00,weatherlink.com 1.10,2013-02-10 02:24:00,
2013-02-09 19:39:00,20.4,17.0,29.58,East,87,0.0,0.0,86,0.00,,,0.00,weatherlink.com 1.10,2013-02-10 02:39:00,
2013-02-09 19:54:00,20.2,17.0,29.59,WNW,302,0.0,1.0,88,0.00,,,0.00,weatherlink.com 1.10,2013-02-10 02:54:00,
2013-02-09 20:09:00,20.0,17.0,29.59,ENE,64,0.0,2.0,89,0.00,,,0.00,weatherlink.com 1.10,2013-02-10 03:09:00,
2013-02-09 20:24:00,19.8,17.0,29.59,WSW,252,0.0,0.0,88,0.00,,,0.00,weatherlink.com 1.10,2013-02-10 03:24:00,
2013-02-09 20:39:00,19.4,17.0,29.59,ESE,122,0.0,0.0,89,0.00,,,0.00,weatherlink.com 1.10,2013-02-10 03:39:00,
2013-02-09 20:54:00,18.9,16.0,29.59,ESE,122,0.0,0.0,89,0.00,,,0.00,weatherlink.com 1.10,2013-02-10 03:54:00,
2013-02-09 21:09:00,18.2,16.0,29.59,ENE,77,2.0,2.0,90,0.00,,,0.00,weatherlink.com 1.10,2013-02-10 04:09:00,
2013-02-09 21:24:00,18.9,14.0,29.59,SE,129,1.0,6.0,80,0.00,,,0.00,weatherlink.com 1.10,2013-02-10 04:24:00,
2013-02-09 21:39:00,18.1,15.0,29.59,ESE,117,0.0,2.0,87,0.00,,,0.00,weatherlink.com 1.10,2013-02-10 04:39:00,
2013-02-09 21:54:00,18.8,12.0,29.59,ENE,77,0.0,6.0,73,0.00,,,0.00,weatherlink.com 1.10,2013-02-10 04:54:00,
2013-02-09 22:09:00,19.1,11.0,29.59,WSW,252,0.0,5.0,72,0.00,,,0.00,weatherlink.com 1.10,2013-02-10 05:09:00,
2013-02-09 22:24:00,18.9,11.0,29.59,SSE,155,0.0,2.0,71,0.00,,,0.00,weatherlink.com 1.10,2013-02-10 05:24:00,
2013-02-09 22:39:00,19.3,8.0,29.59,ESE,111,0.0,8.0,62,0.00,,,0.00,weatherlink.com 1.10,2013-02-10 05:39:00,
2013-02-09 22:54:00,19.3,9.0,29.59,ESE,108,3.0,8.0,63,0.00,,,0.00,weatherlink.com 1.10,2013-02-10 05:54:00,
2013-02-09 23:09:00,18.8,9.0,29.60,West,259,0.0,8.0,66,0.00,,,0.00,weatherlink.com 1.10,2013-02-10 06:09:00,
2013-02-09 23:24:00,18.4,9.0,29.61,WNW,290,1.0,9.0,67,0.00,,,0.00,weatherlink.com 1.10,2013-02-10 06:24:00,
2013-02-09 23:39:00,18.3,9.0,29.61,NE,37,1.0,10.0,66,0.00,,,0.00,weatherlink.com 1.10,2013-02-10 06:39:00,
2013-02-09 23:54:00,18.5,8.0,29.62,WNW,301,6.0,7.0,63,0.00,,,0.00,weatherlink.com 1.10,2013-02-10 06:54:00,